Time;durP1;ratioP1;P1;durP2;ratioP2;P2;SDS_P1;SDS_P2;PMS_P1;PMS_P2;Temp;Humidity;BMP_temperature;BMP_pressure;BME280_temperature;BME280_humidity;BME280_pressure;Samples;Min_cycle;Max_cycle;Signal;HPM_P1;HPM_P2
2022/12/20 00:00:11;;;;;;;3.17;2.60;;;;;;;9.61;100.00;101303.09;5032898;28;20463;-73
2022/12/20 00:02:36;;;;;;;3.33;2.10;;;;;;;9.58;100.00;101295.47;5050968;28;20029;-74
2022/12/20 00:05:02;;;;;;;4.00;2.85;;;;;;;9.62;100.00;101313.56;5050924;28;20163;-73
2022/12/20 00:07:27;;;;;;;5.20;2.67;;;;;;;9.62;100.00;101320.75;5050735;28;20111;-73
2022/12/20 00:09:52;;;;;;;2.78;2.40;;;;;;;9.66;100.00;101324.69;5050791;28;20035;-74
2022/12/20 00:12:18;;;;;;;2.75;2.15;;;;;;;9.72;100.00;101315.16;5050097;28;20468;-74
2022/12/20 00:14:43;;;;;;;4.32;2.70;;;;;;;9.76;100.00;101332.44;5050770;28;20044;-74
2022/12/20 00:17:08;;;;;;;4.60;2.45;;;;;;;9.72;100.00;101312.47;5050710;28;20032;-74
2022/12/20 00:19:34;;;;;;;4.13;3.15;;;;;;;9.76;100.00;101329.78;5032608;28;20032;-74
2022/12/20 00:21:59;;;;;;;5.97;2.28;;;;;;;9.78;100.00;101319.78;5050675;28;20025;-74
2022/12/20 00:24:25;;;;;;;4.10;2.00;;;;;;;9.79;99.97;101311.59;5032491;28;20438;-73
2022/12/20 00:26:50;;;;;;;3.90;1.90;;;;;;;9.81;100.00;101312.25;5049747;28;20102;-74
2022/12/20 00:29:15;;;;;;;3.58;2.08;;;;;;;9.82;99.82;101297.94;5049902;28;20055;-74
2022/12/20 00:31:41;;;;;;;7.65;2.78;;;;;;;9.83;100.00;101299.56;5049715;28;20373;-73
2022/12/20 00:34:06;;;;;;;8.88;2.25;;;;;;;9.83;99.77;101296.09;5049594;28;20029;-68
2022/12/20 00:36:32;;;;;;;3.25;2.30;;;;;;;9.84;99.63;101300.41;5049675;28;20060;-68
2022/12/20 00:38:59;;;;;;;10.02;2.58;;;;;;;9.88;99.37;101301.72;5049400;28;20080;-68
2022/12/20 00:41:27;;;;;;;4.50;2.15;;;;;;;9.89;99.15;101279.38;5049376;28;20036;-68
2022/12/20 00:43:53;;;;;;;5.05;2.72;;;;;;;9.97;98.91;101295.28;5049570;28;20035;-68
2022/12/20 00:46:22;;;;;;;3.80;1.88;;;;;;;9.94;98.67;101277.00;5049327;28;20103;-68
2022/12/20 00:48:47;;;;;;;4.35;2.10;;;;;;;9.97;98.92;101281.13;5049347;28;20132;-68
2022/12/20 00:51:16;;;;;;;3.13;1.92;;;;;;;9.99;98.61;101281.78;5049230;28;20119;-68
2022/12/20 00:53:43;;;;;;;4.28;2.50;;;;;;;10.00;98.67;101275.44;5049471;28;20068;-68
2022/12/20 00:56:09;;;;;;;2.70;2.10;;;;;;;10.00;98.35;101262.94;5049879;28;20087;-68
2022/12/20 00:58:36;;;;;;;4.88;2.97;;;;;;;10.01;98.58;101259.28;5049893;28;20032;-68
2022/12/20 01:01:03;;;;;;;3.53;2.47;;;;;;;10.04;98.08;101266.91;5049242;28;20099;-67
2022/12/20 01:03:28;;;;;;;4.70;2.28;;;;;;;10.06;98.00;101274.69;5049544;28;20095;-68
2022/12/20 01:05:56;;;;;;;4.25;2.75;;;;;;;10.02;97.96;101268.91;5049833;28;20579;-68
2022/12/20 01:08:23;;;;;;;3.45;1.95;;;;;;;10.09;97.86;101280.50;5049853;28;20515;-68
2022/12/20 01:11:03;;;;;;;4.13;2.35;;;;;;;10.14;98.09;101279.13;5049780;28;20029;-68
2022/12/20 01:13:29;;;;;;;5.60;2.58;;;;;;;10.18;98.67;101286.56;5049720;28;20610;-68
2022/12/20 01:15:55;;;;;;;4.82;2.00;;;;;;;10.17;100.00;101284.91;5049534;28;20057;-68
2022/12/20 01:18:21;;;;;;;3.85;2.08;;;;;;;10.13;100.00;101282.78;5049607;28;20056;-68
2022/12/20 01:20:46;;;;;;;5.07;2.30;;;;;;;10.05;100.00;101281.88;5049675;28;20419;-68
2022/12/20 01:23:12;;;;;;;3.95;2.20;;;;;;;9.99;100.00;101295.09;5049390;28;20133;-68
2022/12/20 01:25:37;;;;;;;3.58;2.30;;;;;;;9.93;100.00;101288.66;5049048;28;20033;-68
2022/12/20 01:28:03;;;;;;;3.65;2.22;;;;;;;9.90;100.00;101298.84;5030874;28;20025;-68
2022/12/20 01:30:28;;;;;;;5.10;2.80;;;;;;;9.90;100.00;101286.34;5048488;28;20128;-68
2022/12/20 01:32:53;;;;;;;4.05;2.22;;;;;;;9.84;100.00;101274.59;5048952;28;20111;-68
2022/12/20 01:35:19;;;;;;;3.40;2.67;;;;;;;9.86;100.00;101277.91;5048850;28;20036;-68
2022/12/20 01:37:44;;;;;;;4.47;3.42;;;;;;;9.84;100.00;101277.25;5048560;28;20557;-68
2022/12/20 01:40:09;;;;;;;3.38;2.28;;;;;;;9.72;100.00;101293.84;5048648;28;20025;-68
2022/12/20 01:42:36;;;;;;;3.15;2.05;;;;;;;9.64;100.00;101287.59;5048759;28;20411;-68
2022/12/20 01:45:06;;;;;;;4.63;2.83;;;;;;;9.57;100.00;101299.16;5048648;28;20036;-68
2022/12/20 01:47:35;;;;;;;5.68;3.03;;;;;;;9.46;100.00;101281.75;5048544;28;20060;-68
2022/12/20 01:50:03;;;;;;;8.63;2.95;;;;;;;9.43;100.00;101285.59;5048735;28;20033;-68
2022/12/20 01:52:36;;;;;;;6.93;3.38;;;;;;;9.37;100.00;101273.00;5048810;28;20029;-68
2022/12/20 01:55:04;;;;;;;3.50;2.75;;;;;;;9.30;100.00;101265.91;5049100;28;20039;-69
2022/12/20 01:57:45;;;;;;;6.10;3.60;;;;;;;9.26;100.00;101273.41;5049247;28;20118;-68
2022/12/20 02:00:11;;;;;;;6.75;2.88;;;;;;;9.21;100.00;101267.78;5049188;28;20032;-68
2022/12/20 02:02:37;;;;;;;5.95;2.88;;;;;;;9.26;100.00;101270.75;5048708;28;20142;-68
2022/12/20 02:05:03;;;;;;;7.47;2.72;;;;;;;9.27;100.00;101261.75;5049193;28;20123;-68
2022/12/20 02:07:32;;;;;;;5.22;2.70;;;;;;;9.26;100.00;101249.47;5031285;28;20028;-68
2022/12/20 02:09:59;;;;;;;2.80;2.17;;;;;;;9.28;100.00;101250.13;5049131;28;20051;-68
2022/12/20 02:12:33;;;;;;;4.43;2.88;;;;;;;9.27;100.00;101247.63;5049118;28;20025;-68
2022/12/20 02:15:07;;;;;;;6.78;2.88;;;;;;;9.26;100.00;101228.16;5048764;28;20104;-68
2022/12/20 02:18:00;;;;;;;6.68;2.53;;;;;;;9.26;100.00;101238.81;5048952;28;20116;-68
2022/12/20 02:20:42;;;;;;;7.18;3.20;;;;;;;9.24;100.00;101238.16;5049214;28;20154;-68
2022/12/20 02:23:33;;;;;;;5.57;2.83;;;;;;;9.24;100.00;101221.38;5049122;28;20037;-68
2022/12/20 02:26:16;;;;;;;6.35;2.45;;;;;;;9.22;100.00;101218.88;5048503;28;20035;-68
2022/12/20 02:28:54;;;;;;;3.97;2.38;;;;;;;9.20;100.00;101211.09;5048423;28;20108;-68
2022/12/20 02:31:26;;;;;;;4.03;2.78;;;;;;;9.19;100.00;101209.41;5048381;28;20064;-68
2022/12/20 02:33:54;;;;;;;4.15;3.13;;;;;;;9.19;100.00;101189.97;5048927;28;20360;-68
2022/12/20 02:36:20;;;;;;;5.05;2.83;;;;;;;9.19;100.00;101205.94;5051669;28;20055;-68
2022/12/20 02:38:45;;;;;;;4.50;2.90;;;;;;;9.21;100.00;101210.06;5051563;28;20083;-68
2022/12/20 02:41:25;;;;;;;5.47;3.08;;;;;;;9.20;100.00;101212.94;5051752;28;20100;-68
2022/12/20 02:46:46;;;;;;;5.57;3.10;;;;;;;9.15;100.00;101183.34;5051610;28;20040;-68
2022/12/20 02:49:17;;;;;;;6.30;3.85;;;;;;;9.13;100.00;101186.19;5051722;28;20086;-68
2022/12/20 02:51:47;;;;;;;8.02;3.42;;;;;;;9.14;100.00;101182.53;5051691;28;20541;-69
2022/12/20 02:54:14;;;;;;;5.78;2.83;;;;;;;9.15;100.00;101184.19;5051353;28;20415;-69
2022/12/20 02:56:49;;;;;;;6.32;3.20;;;;;;;9.11;100.00;101177.56;5052037;28;20032;-68
2022/12/20 02:59:22;;;;;;;4.32;2.67;;;;;;;9.19;100.00;101181.97;5051981;28;20032;-69
2022/12/20 03:01:51;;;;;;;5.53;2.40;;;;;;;9.19;100.00;101176.66;5051719;28;20032;-69
2022/12/20 03:04:19;;;;;;;4.78;2.60;;;;;;;9.23;100.00;101185.13;5052022;28;20106;-68
2022/12/20 03:07:02;;;;;;;4.20;2.80;;;;;;;9.20;100.00;101165.84;5052047;28;20151;-69
2022/12/20 03:09:31;;;;;;;4.65;2.47;;;;;;;9.20;100.00;101163.19;5052123;28;20392;-68
2022/12/20 03:11:56;;;;;;;4.07;2.40;;;;;;;9.27;100.00;101170.44;5051770;28;20475;-69
2022/12/20 03:14:22;;;;;;;4.05;2.65;;;;;;;9.29;100.00;101176.41;5051675;28;20044;-68
2022/12/20 03:16:47;;;;;;;3.22;2.42;;;;;;;9.30;100.00;101192.22;5051987;28;20039;-68
2022/12/20 03:19:12;;;;;;;5.68;2.33;;;;;;;9.33;100.00;101185.72;5051298;28;20068;-68
2022/12/20 03:21:38;;;;;;;6.32;3.05;;;;;;;9.36;100.00;101177.34;5051864;28;20035;-68
2022/12/20 03:24:03;;;;;;;6.50;2.50;;;;;;;9.43;100.00;101175.59;5051547;28;20420;-68
2022/12/20 03:26:29;;;;;;;3.60;2.65;;;;;;;9.46;100.00;101183.25;5051276;28;20033;-68
2022/12/20 03:28:54;;;;;;;4.65;2.40;;;;;;;9.44;100.00;101177.28;5051560;28;20024;-68
2022/12/20 03:31:19;;;;;;;4.22;2.53;;;;;;;9.55;100.00;101166.16;5033697;28;20123;-74
2022/12/20 03:33:45;;;;;;;8.18;3.15;;;;;;;9.58;100.00;101165.81;5051531;28;20054;-74
2022/12/20 03:36:10;;;;;;;3.78;2.88;;;;;;;9.62;100.00;101163.63;5051495;28;20093;-74
2022/12/20 03:38:35;;;;;;;4.20;2.13;;;;;;;9.66;100.00;101164.91;5051237;28;20052;-74
2022/12/20 03:41:01;;;;;;;5.75;2.17;;;;;;;9.70;100.00;101160.88;5051379;28;20020;-74
2022/12/20 03:43:26;;;;;;;5.35;2.80;;;;;;;9.74;100.00;101170.13;5051389;28;20468;-74
2022/12/20 03:45:51;;;;;;;4.90;2.00;;;;;;;9.79;100.00;101166.91;5050024;28;20570;-74
2022/12/20 03:48:17;;;;;;;3.90;2.42;;;;;;;9.78;100.00;101173.28;5051280;28;20115;-74
2022/12/20 03:50:42;;;;;;;6.38;2.47;;;;;;;9.85;100.00;101180.34;5033215;28;20128;-74
2022/12/20 03:53:07;;;;;;;3.70;2.30;;;;;;;9.88;100.00;101184.47;5033280;28;20594;-74
2022/12/20 03:55:33;;;;;;;4.47;2.55;;;;;;;9.94;100.00;101191.72;5051099;28;20392;-74
2022/12/20 03:57:58;;;;;;;2.78;2.38;;;;;;;9.98;100.00;101193.03;5051236;28;20387;-74
2022/12/20 04:00:24;;;;;;;2.50;1.92;;;;;;;10.02;100.00;101196.97;5051143;28;20388;-74
2022/12/20 04:02:49;;;;;;;5.38;2.38;;;;;;;10.06;100.00;101190.25;5051075;28;20035;-74
2022/12/20 04:05:15;;;;;;;7.90;2.92;;;;;;;10.11;100.00;101184.34;5051000;28;20027;-74
2022/12/20 04:07:41;;;;;;;8.15;3.08;;;;;;;10.06;100.00;101152.97;5050968;28;20044;-74
2022/12/20 04:10:07;;;;;;;5.15;2.03;;;;;;;10.19;100.00;101175.44;5033029;28;20029;-74
2022/12/20 04:12:32;;;;;;;5.45;2.70;;;;;;;10.25;100.00;101177.38;5050754;28;20037;-74
2022/12/20 04:14:57;;;;;;;4.22;2.28;;;;;;;10.29;100.00;101176.00;5050903;28;20123;-74
2022/12/20 04:17:23;;;;;;;3.67;2.30;;;;;;;10.29;100.00;101168.81;5050675;28;20032;-74
2022/12/20 04:19:48;;;;;;;5.20;2.35;;;;;;;10.26;100.00;101155.03;5050712;28;20020;-74
2022/12/20 04:22:13;;;;;;;2.80;1.60;;;;;;;10.34;100.00;101170.13;5050552;28;20120;-74
2022/12/20 04:24:38;;;;;;;5.03;2.40;;;;;;;10.36;100.00;101165.44;5050526;28;20071;-74
2022/12/20 04:27:04;;;;;;;3.35;2.10;;;;;;;10.38;100.00;101168.75;5050558;28;20037;-74
2022/12/20 04:29:30;;;;;;;5.05;1.92;;;;;;;10.35;100.00;101167.28;5050540;28;20067;-74
2022/12/20 04:31:55;;;;;;;4.82;2.50;;;;;;;10.37;100.00;101169.75;5050443;28;20029;-74
2022/12/20 04:34:21;;;;;;;2.60;1.90;;;;;;;10.38;100.00;101166.91;5050359;28;20029;-74
2022/12/20 04:36:46;;;;;;;4.25;2.28;;;;;;;10.35;100.00;101150.44;5015995;28;20124;-74
2022/12/20 04:39:11;;;;;;;7.47;2.47;;;;;;;10.41;100.00;101155.03;5050046;28;20441;-74
2022/12/20 04:41:37;;;;;;;5.22;2.63;;;;;;;10.36;100.00;101158.25;5050232;28;20436;-74
2022/12/20 04:44:02;;;;;;;3.05;2.08;;;;;;;10.39;100.00;101149.06;5032312;28;20053;-74
2022/12/20 04:46:27;;;;;;;3.08;2.38;;;;;;;10.45;100.00;101157.16;5050178;28;20032;-74
2022/12/20 04:48:53;;;;;;;6.45;3.45;;;;;;;10.47;100.00;101149.75;5050249;28;20107;-74
2022/12/20 04:51:18;;;;;;;3.47;2.35;;;;;;;10.50;100.00;101159.22;5050037;28;20366;-74
2022/12/20 04:53:46;;;;;;;6.43;3.25;;;;;;;10.49;100.00;101153.06;5049943;28;20146;-74
2022/12/20 04:56:20;;;;;;;3.42;2.65;;;;;;;10.58;100.00;101158.28;5031724;28;20434;-74
2022/12/20 04:58:47;;;;;;;2.60;2.03;;;;;;;10.56;100.00;101155.81;5049988;28;20032;-74
2022/12/20 05:01:13;;;;;;;3.30;1.90;;;;;;;10.54;100.00;101160.50;5032004;28;20139;-74
2022/12/20 05:03:38;;;;;;;3.00;2.33;;;;;;;10.59;100.00;101160.78;5050050;28;20070;-74
2022/12/20 05:06:05;;;;;;;2.58;2.25;;;;;;;10.52;100.00;101147.34;5049816;28;20029;-74
2022/12/20 05:08:30;;;;;;;2.28;1.83;;;;;;;10.53;100.00;101157.03;5049754;28;20365;-74
2022/12/20 05:10:55;;;;;;;3.22;2.83;;;;;;;10.52;100.00;101141.19;5049840;28;20079;-74
2022/12/20 05:13:21;;;;;;;4.70;2.30;;;;;;;10.54;100.00;101160.50;5049421;28;20032;-75
2022/12/20 05:15:53;;;;;;;3.83;2.00;;;;;;;10.53;100.00;101143.69;5049495;28;20039;-74
2022/12/20 05:18:19;;;;;;;5.55;2.75;;;;;;;10.50;100.00;101124.56;5049598;28;20533;-74
2022/12/20 05:20:44;;;;;;;2.65;2.03;;;;;;;10.56;100.00;101145.16;5049757;28;20017;-75
2022/12/20 05:28:39;;;;;;;2.85;1.92;;;;;;;10.64;100.00;101122.88;5048885;28;20051;-74
2022/12/20 05:31:04;;;;;;;3.65;2.67;;;;;;;10.67;100.00;101117.16;5030736;28;20107;-74
2022/12/20 05:33:30;;;;;;;4.97;3.03;;;;;;;10.65;100.00;101114.66;5048619;28;20075;-74
2022/12/20 05:35:55;;;;;;;4.82;3.30;;;;;;;10.65;100.00;101121.84;5048554;28;20060;-74
2022/12/20 05:38:22;;;;;;;5.28;1.90;;;;;;;10.64;100.00;101125.53;5048372;28;20057;-75
2022/12/20 05:40:48;;;;;;;2.70;2.13;;;;;;;10.61;100.00;101121.41;5048394;28;20033;-74
2022/12/20 05:43:14;;;;;;;3.10;2.03;;;;;;;10.59;100.00;101122.63;5048258;28;20399;-74
2022/12/20 05:45:43;;;;;;;4.43;2.25;;;;;;;10.55;100.00;101116.81;5048006;28;20108;-74
2022/12/20 05:48:09;;;;;;;5.28;2.50;;;;;;;10.52;100.00;101114.53;5048089;28;20043;-74
2022/12/20 05:50:34;;;;;;;2.92;2.30;;;;;;;10.49;100.00;101113.06;5048018;28;20028;-73
2022/12/20 05:53:00;;;;;;;5.90;2.85;;;;;;;10.47;100.00;101109.75;5048453;28;20041;-74
2022/12/20 05:55:25;;;;;;;6.00;2.78;;;;;;;10.45;100.00;101110.97;5048796;28;20203;-74
2022/12/20 05:57:50;;;;;;;4.88;2.33;;;;;;;10.44;100.00;101112.00;5049203;28;20060;-74
2022/12/20 06:00:16;;;;;;;4.00;1.88;;;;;;;10.39;100.00;101101.06;5049298;28;20041;-74
2022/12/20 06:02:41;;;;;;;3.22;2.53;;;;;;;10.39;100.00;101095.72;5049241;28;20466;-74
2022/12/20 06:05:07;;;;;;;6.72;2.70;;;;;;;10.37;100.00;101092.41;5049195;28;20555;-74
2022/12/20 06:07:32;;;;;;;3.58;2.63;;;;;;;10.35;100.00;101091.78;5049131;28;20111;-74
2022/12/20 06:09:57;;;;;;;4.05;2.22;;;;;;;10.31;100.00;101081.50;5051660;28;20029;-74
2022/12/20 06:12:23;;;;;;;4.25;2.67;;;;;;;10.31;100.00;101096.69;5053042;28;20124;-74
2022/12/20 06:14:49;;;;;;;3.20;2.30;;;;;;;10.21;100.00;101075.63;5053112;28;20025;-74
2022/12/20 06:17:14;;;;;;;2.83;2.03;;;;;;;10.25;100.00;101074.22;5053190;28;20021;-74
2022/12/20 06:19:43;;;;;;;6.60;2.28;;;;;;;10.22;100.00;101058.63;5052836;28;20135;-74
2022/12/20 06:22:09;;;;;;;3.40;2.30;;;;;;;10.20;100.00;101067.81;5052939;28;20083;-74
2022/12/20 06:24:35;;;;;;;4.50;2.30;;;;;;;10.19;100.00;101064.34;5052613;28;20029;-74
2022/12/20 06:27:01;;;;;;;5.75;3.00;;;;;;;10.16;100.00;101062.03;5052861;28;20044;-74
2022/12/20 06:29:27;;;;;;;2.53;2.08;;;;;;;10.15;100.00;101062.22;5052727;28;20029;-74
2022/12/20 06:31:52;;;;;;;4.03;2.63;;;;;;;10.13;100.00;101064.25;5052538;28;20480;-74
2022/12/20 06:34:18;;;;;;;9.23;2.60;;;;;;;10.08;100.00;101068.28;5052769;28;20048;-74
2022/12/20 06:36:43;;;;;;;3.47;2.15;;;;;;;10.03;100.00;101061.88;5052559;28;20497;-74
2022/12/20 06:39:09;;;;;;;3.60;2.33;;;;;;;9.97;100.00;101063.47;5034487;28;20061;-74
2022/12/20 06:41:35;;;;;;;3.63;2.53;;;;;;;9.95;100.00;101070.81;5052527;28;20434;-74
2022/12/20 06:44:00;;;;;;;3.70;2.05;;;;;;;9.91;100.00;101060.75;5052419;28;20033;-68
2022/12/20 06:46:26;;;;;;;4.38;2.50;;;;;;;9.89;100.00;101063.56;5052186;28;20083;-68
2022/12/20 06:48:52;;;;;;;3.60;2.97;;;;;;;9.85;100.00;101057.81;5052444;28;20387;-68
2022/12/20 06:51:17;;;;;;;3.38;2.60;;;;;;;9.77;100.00;101049.06;5051851;28;20035;-68
2022/12/20 06:53:42;;;;;;;5.78;2.75;;;;;;;9.87;100.00;101065.59;5051613;28;20044;-68
2022/12/20 06:56:08;;;;;;;8.10;2.42;;;;;;;9.87;100.00;101060.25;5051774;28;20060;-68
2022/12/20 06:58:33;;;;;;;7.05;2.40;;;;;;;9.88;100.00;101052.09;5052047;28;20033;-68
2022/12/20 07:00:59;;;;;;;3.22;2.13;;;;;;;9.86;100.00;101042.66;5034071;28;20052;-68
2022/12/20 07:03:24;;;;;;;3.72;2.22;;;;;;;9.86;100.00;101042.66;5051940;28;20036;-68
2022/12/20 07:05:52;;;;;;;3.20;2.45;;;;;;;9.85;100.00;101051.63;5051949;28;20037;-68
2022/12/20 07:08:18;;;;;;;7.05;2.72;;;;;;;9.90;100.00;101059.06;5051912;28;20063;-68
2022/12/20 07:10:43;;;;;;;4.47;2.00;;;;;;;9.90;100.00;101053.75;5051963;28;20072;-68
2022/12/20 07:13:09;;;;;;;3.95;2.08;;;;;;;9.86;100.00;101059.44;5051763;28;20383;-68
2022/12/20 07:15:34;;;;;;;4.45;2.17;;;;;;;9.89;100.00;101060.91;5033605;28;20075;-68
2022/12/20 07:18:00;;;;;;;11.50;2.58;;;;;;;9.90;100.00;101059.88;5051810;28;20067;-68
2022/12/20 07:20:25;;;;;;;3.30;1.75;;;;;;;9.91;100.00;101048.22;5051451;28;20090;-68
2022/12/20 07:22:51;;;;;;;3.53;1.92;;;;;;;9.96;100.00;101055.66;5051676;28;20067;-68
2022/12/20 07:25:16;;;;;;;5.10;2.22;;;;;;;10.03;100.00;101067.22;5033685;28;20052;-68
2022/12/20 07:27:42;;;;;;;3.17;1.90;;;;;;;9.97;100.00;101049.31;5050508;28;20284;-68
2022/12/20 07:30:08;;;;;;;3.40;2.15;;;;;;;10.08;100.00;101064.81;5050268;28;20037;-68
2022/12/20 07:32:33;;;;;;;2.10;1.88;;;;;;;10.07;100.00;101055.19;5050412;28;20044;-68
2022/12/20 07:35:00;;;;;;;2.33;1.73;;;;;;;10.12;100.00;101054.63;5050207;28;20029;-68
2022/12/20 07:37:28;;;;;;;5.20;2.30;;;;;;;10.15;100.00;101063.06;5050026;28;20057;-68
2022/12/20 07:39:53;;;;;;;5.47;1.92;;;;;;;10.16;100.00;101063.88;5050074;28;20167;-68
2022/12/20 07:42:18;;;;;;;5.30;1.90;;;;;;;10.10;100.00;101058.28;5049953;28;20119;-68
2022/12/20 07:44:44;;;;;;;10.30;2.47;;;;;;;10.18;100.00;101069.84;5050857;28;20083;-68
2022/12/20 07:47:09;;;;;;;2.28;1.98;;;;;;;10.19;100.00;101072.34;5050488;28;20040;-68
2022/12/20 07:49:35;;;;;;;2.55;1.80;;;;;;;10.19;100.00;101069.66;5050892;28;20028;-68
2022/12/20 07:52:03;;;;;;;6.90;2.13;;;;;;;10.22;100.00;101055.13;5032205;28;20407;-68
2022/12/20 07:54:53;;;;;;;5.25;2.22;;;;;;;10.30;100.00;101065.72;5032526;28;20515;-68
2022/12/20 07:57:26;;;;;;;2.88;2.08;;;;;;;10.31;100.00;101078.00;5050618;28;20029;-68
2022/12/20 07:59:55;;;;;;;5.07;2.20;;;;;;;10.34;100.00;101076.81;5051045;28;20021;-68
2022/12/20 08:02:41;;;;;;;3.22;2.05;;;;;;;10.35;100.00;101079.28;5050814;28;20017;-68
2022/12/20 08:05:08;;;;;;;5.25;2.35;;;;;;;10.38;100.00;101086.09;5050162;28;20063;-69
2022/12/20 08:07:37;;;;;;;4.90;1.63;;;;;;;10.40;100.00;101092.88;5050829;28;20025;-67
2022/12/20 08:10:05;;;;;;;5.35;2.10;;;;;;;10.40;100.00;101086.69;5050902;28;20406;-68
2022/12/20 08:12:32;;;;;;;3.70;1.85;;;;;;;10.40;100.00;101081.38;5032276;28;20250;-67
2022/12/20 08:14:58;;;;;;;2.20;1.50;;;;;;;10.48;100.00;101086.59;5050779;28;20032;-67
2022/12/20 08:17:23;;;;;;;4.53;1.90;;;;;;;10.49;100.00;101088.25;5050718;28;20369;-67
2022/12/20 08:19:51;;;;;;;4.30;2.20;;;;;;;10.46;100.00;101085.97;5050548;28;20044;-68
2022/12/20 08:22:18;;;;;;;2.97;1.80;;;;;;;10.38;100.00;101091.44;5050447;28;20032;-68
2022/12/20 08:24:44;;;;;;;3.17;1.73;;;;;;;10.30;100.00;101093.19;5050463;28;20475;-67
2022/12/20 08:27:09;;;;;;;3.60;1.70;;;;;;;10.22;100.00;101084.47;5049828;28;20037;-67
2022/12/20 08:29:34;;;;;;;4.00;2.08;;;;;;;10.20;100.00;101079.31;5049612;28;20024;-68
2022/12/20 08:32:00;;;;;;;4.40;1.90;;;;;;;10.17;100.00;101084.19;5044051;28;20472;-69
2022/12/20 08:34:25;;;;;;;2.65;1.98;;;;;;;10.16;100.00;101085.19;5043435;28;20071;-69
2022/12/20 08:36:50;;;;;;;4.68;2.25;;;;;;;10.13;100.00;101093.56;5044021;28;20056;-67
2022/12/20 08:39:16;;;;;;;5.85;2.00;;;;;;;10.09;100.00;101090.47;5043949;28;20079;-69
2022/12/20 08:41:41;;;;;;;5.43;2.17;;;;;;;10.03;100.00;101084.06;5044280;28;20120;-70
2022/12/20 08:44:08;;;;;;;2.53;1.60;;;;;;;10.00;100.00;101094.25;5044435;28;20076;-70
2022/12/20 08:46:33;;;;;;;2.75;1.70;;;;;;;9.97;100.00;101086.63;5044311;28;20082;-69
2022/12/20 08:48:59;;;;;;;5.18;2.22;;;;;;;9.95;100.00;101078.81;5044315;28;20025;-69
2022/12/20 08:51:24;;;;;;;3.85;2.08;;;;;;;9.93;100.00;101072.84;5044101;28;20029;-69
2022/12/20 08:53:50;;;;;;;3.22;2.10;;;;;;;9.91;100.00;101077.53;5043852;28;20051;-69
2022/12/20 08:56:17;;;;;;;4.68;1.88;;;;;;;9.87;100.00;101065.59;5043747;28;20024;-69
2022/12/20 08:58:43;;;;;;;3.95;2.15;;;;;;;9.89;100.00;101071.56;5044077;28;20087;-70
2022/12/20 09:01:17;;;;;;;4.25;2.30;;;;;;;9.86;100.00;101071.94;5044277;28;20017;-69
2022/12/20 09:03:43;;;;;;;4.55;2.35;;;;;;;9.82;100.00;101068.00;5044511;28;20024;-69
2022/12/20 09:06:12;;;;;;;4.25;1.75;;;;;;;9.77;100.00;101067.72;5044297;28;20037;-69
2022/12/20 09:08:38;;;;;;;4.97;2.80;;;;;;;9.68;100.00;101060.84;5044140;28;20628;-69
2022/12/20 09:11:15;;;;;;;6.05;2.08;;;;;;;9.60;100.00;101062.59;5043172;28;20036;-70
2022/12/20 09:13:42;;;;;;;3.17;1.80;;;;;;;9.47;100.00;101045.63;5044131;28;20028;-70
2022/12/20 09:16:08;;;;;;;4.05;2.13;;;;;;;9.54;100.00;101052.69;5044530;28;20541;-77
2022/12/20 09:18:34;;;;;;;4.38;2.10;;;;;;;9.52;100.00;101061.88;5043945;28;20414;-76
2022/12/20 09:21:04;;;;;;;7.75;2.70;;;;;;;9.52;100.00;101054.72;5043795;28;20028;-74
2022/12/20 09:23:30;;;;;;;4.15;2.35;;;;;;;9.54;100.00;101051.88;5044126;28;20025;-75
2022/12/20 09:26:02;;;;;;;4.03;1.90;;;;;;;9.55;100.00;101048.19;5044129;28;20025;-75
2022/12/20 09:28:28;;;;;;;2.55;1.95;;;;;;;9.54;100.00;101043.91;5043408;28;20029;-76
2022/12/20 09:31:00;;;;;;;3.65;1.90;;;;;;;9.55;100.00;101049.00;5043103;28;20029;-76
2022/12/20 09:33:26;;;;;;;;;;;;;;;9.64;100.00;101055.91;5044160;28;20032;-76
2022/12/20 09:35:51;;;;;;;4.05;1.90;;;;;;;9.70;100.00;101048.19;5043740;28;19913;-77
2022/12/20 09:38:16;;;;;;;5.00;2.42;;;;;;;9.77;100.00;101046.41;5005979;28;20053;-75
2022/12/20 09:40:54;;;;;;;12.27;3.55;;;;;;;9.88;100.00;101062.75;5041081;28;20044;-74
2022/12/20 09:43:21;;;;;;;4.40;3.10;;;;;;;9.98;100.00;101061.63;5038767;28;20025;-77
2022/12/20 09:45:50;;;;;;;4.43;2.30;;;;;;;10.03;100.00;101060.06;5042342;28;20025;-76
2022/12/20 09:48:24;;;;;;;4.32;2.53;;;;;;;10.05;100.00;101052.69;5045166;28;20116;-74
2022/12/20 09:51:20;;;;;;;4.10;2.13;;;;;;;10.15;100.00;101059.56;5048099;28;20545;-72
2022/12/20 09:53:53;;;;;;;3.33;2.28;;;;;;;10.17;100.00;101049.56;5051796;28;20500;-72
2022/12/20 09:56:26;;;;;;;4.15;1.83;;;;;;;10.16;100.00;101040.69;5053703;28;20056;-72
2022/12/20 09:58:54;;;;;;;5.40;2.17;;;;;;;10.21;100.00;101056.97;5049340;28;20464;-72
2022/12/20 10:01:23;;;;;;;5.18;2.83;;;;;;;10.21;100.00;101062.28;5047566;28;20029;-73
2022/12/20 10:03:49;;;;;;;5.68;2.33;;;;;;;10.14;100.00;101047.22;5052469;28;20036;-73
2022/12/20 10:06:34;;;;;;;4.57;2.00;;;;;;;10.12;100.00;101049.28;5046822;28;20029;-73
2022/12/20 10:09:20;;;;;;;5.63;2.30;;;;;;;10.12;100.00;101046.63;5046463;28;20080;-74
2022/12/20 10:12:15;;;;;;;6.85;3.00;;;;;;;10.14;100.00;101052.56;5052512;28;20103;-73
2022/12/20 10:15:01;;;;;;;6.45;3.28;;;;;;;10.14;100.00;101044.56;5053034;28;20029;-72
2022/12/20 10:17:35;;;;;;;6.57;2.28;;;;;;;10.17;100.00;101047.69;5047210;28;20032;-72
2022/12/20 10:20:23;;;;;;;5.82;2.17;;;;;;;10.18;100.00;101038.69;5051708;28;20076;-72
2022/12/20 10:22:57;;;;;;;2.58;2.30;;;;;;;10.19;100.00;101035.03;5050633;28;20098;-72
2022/12/20 10:25:30;;;;;;;2.25;1.65;;;;;;;10.21;100.00;101030.31;5043056;28;20033;-73
2022/12/20 10:27:59;;;;;;;5.75;2.08;;;;;;;10.26;100.00;101027.88;5043755;28;20025;-72
2022/12/20 10:30:26;;;;;;;7.90;2.35;;;;;;;10.38;100.00;101030.09;5048903;28;20060;-72
2022/12/20 10:32:55;;;;;;;3.67;1.70;;;;;;;10.47;100.00;101028.94;5038035;28;20037;-72
2022/12/20 10:35:30;;;;;;;6.50;2.42;;;;;;;10.52;100.00;101035.34;5049985;28;20110;-72
2022/12/20 10:37:58;;;;;;;3.67;1.70;;;;;;;10.60;100.00;101028.22;5051680;28;20072;-72
2022/12/20 10:40:30;;;;;;;4.20;2.10;;;;;;;10.62;100.00;101016.34;5052425;28;20541;-72
2022/12/20 10:42:57;;;;;;;6.70;2.05;;;;;;;10.66;100.00;101019.44;5052947;28;20033;-72
2022/12/20 10:45:22;;;;;;;2.80;2.35;;;;;;;10.74;100.00;101024.66;5055226;28;20028;-72
2022/12/20 10:47:50;;;;;;;5.20;2.20;;;;;;;10.70;100.00;101020.72;5053566;28;20028;-73
2022/12/20 10:50:19;;;;;;;3.63;2.08;;;;;;;10.68;100.00;101028.09;5056167;28;20033;-72
2022/12/20 10:53:00;;;;;;;3.70;2.17;;;;;;;10.65;100.00;101031.16;5042102;28;20033;-72
2022/12/20 10:55:33;;;;;;;4.47;2.40;;;;;;;10.56;100.00;101026.97;5062446;28;20032;-72
2022/12/20 10:58:03;;;;;;;3.53;1.95;;;;;;;10.46;100.00;101022.78;5057649;28;20066;-72
2022/12/20 11:00:30;;;;;;;3.28;1.80;;;;;;;10.41;100.00;101025.19;5059750;28;20163;-72
2022/12/20 11:03:24;;;;;;;4.10;2.47;;;;;;;10.36;100.00;101029.47;5057069;28;20165;-72
2022/12/20 11:05:58;;;;;;;2.95;2.03;;;;;;;10.27;100.00;101013.59;5063361;28;20036;-73
2022/12/20 11:08:26;;;;;;;5.28;2.15;;;;;;;10.21;100.00;101026.81;5058756;28;20613;-73
2022/12/20 11:11:13;;;;;;;2.95;2.05;;;;;;;10.19;100.00;101020.84;5057367;28;20109;-72
2022/12/20 11:13:40;;;;;;;4.10;2.30;;;;;;;10.14;100.00;101017.91;5053575;28;20025;-72
2022/12/20 11:16:20;;;;;;;5.15;2.40;;;;;;;10.10;100.00;101012.16;5052398;28;20034;-72
2022/12/20 11:19:17;;;;;;;4.75;2.67;;;;;;;10.08;100.00;101017.66;5052252;28;20029;-72
2022/12/20 11:22:00;;;;;;;4.18;2.20;;;;;;;10.07;100.00;101010.69;5053713;28;20029;-72
2022/12/20 11:24:54;;;;;;;4.90;2.22;;;;;;;10.06;100.00;101006.38;5057773;28;20025;-72
2022/12/20 11:27:24;;;;;;;3.28;2.00;;;;;;;10.05;100.00;100998.56;5056247;28;20634;-73
2022/12/20 11:29:58;;;;;;;4.35;2.55;;;;;;;10.05;100.00;101006.56;5056527;28;20028;-72
2022/12/20 11:33:01;;;;;;;4.70;2.00;;;;;;;10.03;100.00;101005.94;5050982;28;20047;-72
2022/12/20 11:35:36;;;;;;;4.63;2.75;;;;;;;10.01;100.00;100999.97;5061264;28;20086;-72